Terminal Aerodrome Forecast
Issued by NWS

Home | Current Version | Previous Version | Text Only | Print | Product List | Glossary On
Versions: 1 2 3 4 5 6 7 8 9 10 11 12 13 14 15 16 17 18
635
FTUS41 KBGM 261127
TAFRME
TAF
KRME 261127Z 2612/2712 15005KT P6SM SCT035
     FM270200 11004KT P6SM BKN050
     FM271000 12004KT P6SM BKN030=

USA.gov is the U.S. government's official web portal to all federal, state and local government web resources and services.